sensor_id;sensor_type;location;lat;lon;timestamp;P1;durP1;ratioP1;P2;durP2;ratioP2
28587;SDS011;15787;49.662;10.162;2024-02-16T00:01:41;7.03;;;4.30;;
28587;SDS011;15787;49.662;10.162;2024-02-16T00:04:15;10.93;;;4.50;;
28587;SDS011;15787;49.662;10.162;2024-02-16T00:06:49;11.85;;;5.18;;
28587;SDS011;15787;49.662;10.162;2024-02-16T00:09:22;12.80;;;5.32;;
28587;SDS011;15787;49.662;10.162;2024-02-16T00:11:55;7.65;;;4.20;;
28587;SDS011;15787;49.662;10.162;2024-02-16T00:14:28;8.45;;;4.13;;
28587;SDS011;15787;49.662;10.162;2024-02-16T00:17:01;8.70;;;4.18;;
28587;SDS011;15787;49.662;10.162;2024-02-16T00:19:36;9.05;;;4.80;;
28587;SDS011;15787;49.662;10.162;2024-02-16T00:22:09;8.65;;;4.85;;
28587;SDS011;15787;49.662;10.162;2024-02-16T00:24:43;7.13;;;4.75;;
28587;SDS011;15787;49.662;10.162;2024-02-16T00:27:17;10.70;;;4.00;;
28587;SDS011;15787;49.662;10.162;2024-02-16T00:29:51;6.13;;;4.30;;
28587;SDS011;15787;49.662;10.162;2024-02-16T00:32:24;6.13;;;4.38;;
28587;SDS011;15787;49.662;10.162;2024-02-16T00:35:03;6.72;;;4.03;;
28587;SDS011;15787;49.662;10.162;2024-02-16T00:37:37;7.38;;;4.47;;
28587;SDS011;15787;49.662;10.162;2024-02-16T00:40:11;10.48;;;4.80;;
28587;SDS011;15787;49.662;10.162;2024-02-16T00:42:45;8.30;;;3.97;;
28587;SDS011;15787;49.662;10.162;2024-02-16T00:45:18;5.25;;;3.50;;
28587;SDS011;15787;49.662;10.162;2024-02-16T00:47:51;5.60;;;3.47;;
28587;SDS011;15787;49.662;10.162;2024-02-16T00:50:26;7.45;;;3.67;;
28587;SDS011;15787;49.662;10.162;2024-02-16T00:52:59;7.28;;;4.00;;
28587;SDS011;15787;49.662;10.162;2024-02-16T00:55:34;7.18;;;3.45;;
28587;SDS011;15787;49.662;10.162;2024-02-16T00:58:08;6.72;;;3.50;;
28587;SDS011;15787;49.662;10.162;2024-02-16T01:00:42;8.23;;;3.80;;
28587;SDS011;15787;49.662;10.162;2024-02-16T01:03:16;7.28;;;3.50;;
28587;SDS011;15787;49.662;10.162;2024-02-16T01:05:51;6.47;;;3.40;;
28587;SDS011;15787;49.662;10.162;2024-02-16T01:08:24;6.20;;;3.63;;
28587;SDS011;15787;49.662;10.162;2024-02-16T01:10:59;10.48;;;4.38;;
28587;SDS011;15787;49.662;10.162;2024-02-16T01:13:33;11.10;;;5.40;;
28587;SDS011;15787;49.662;10.162;2024-02-16T01:16:06;14.48;;;6.07;;
28587;SDS011;15787;49.662;10.162;2024-02-16T01:18:40;12.93;;;5.28;;
28587;SDS011;15787;49.662;10.162;2024-02-16T01:21:15;12.23;;;5.63;;
28587;SDS011;15787;49.662;10.162;2024-02-16T01:23:48;9.13;;;4.75;;
28587;SDS011;15787;49.662;10.162;2024-02-16T01:26:21;10.77;;;5.45;;
28587;SDS011;15787;49.662;10.162;2024-02-16T01:28:54;11.45;;;5.65;;
28587;SDS011;15787;49.662;10.162;2024-02-16T01:31:29;11.65;;;4.80;;
28587;SDS011;15787;49.662;10.162;2024-02-16T01:34:03;10.63;;;4.45;;
28587;SDS011;15787;49.662;10.162;2024-02-16T01:36:37;8.57;;;4.78;;
28587;SDS011;15787;49.662;10.162;2024-02-16T01:39:11;9.02;;;5.00;;
28587;SDS011;15787;49.662;10.162;2024-02-16T01:41:44;11.20;;;5.93;;
28587;SDS011;15787;49.662;10.162;2024-02-16T01:44:17;12.77;;;6.20;;
28587;SDS011;15787;49.662;10.162;2024-02-16T01:46:50;9.00;;;5.90;;
28587;SDS011;15787;49.662;10.162;2024-02-16T01:49:24;9.77;;;4.35;;
28587;SDS011;15787;49.662;10.162;2024-02-16T01:51:59;10.52;;;5.32;;
28587;SDS011;15787;49.662;10.162;2024-02-16T01:54:32;13.18;;;5.38;;
28587;SDS011;15787;49.662;10.162;2024-02-16T01:57:06;9.98;;;4.97;;
28587;SDS011;15787;49.662;10.162;2024-02-16T01:59:40;7.55;;;4.60;;
28587;SDS011;15787;49.662;10.162;2024-02-16T02:02:13;7.15;;;4.78;;
28587;SDS011;15787;49.662;10.162;2024-02-16T02:04:46;9.60;;;4.40;;
28587;SDS011;15787;49.662;10.162;2024-02-16T02:07:24;7.72;;;3.80;;
28587;SDS011;15787;49.662;10.162;2024-02-16T02:09:58;7.55;;;4.45;;
28587;SDS011;15787;49.662;10.162;2024-02-16T02:12:32;7.65;;;4.32;;
28587;SDS011;15787;49.662;10.162;2024-02-16T02:15:05;5.93;;;3.65;;
28587;SDS011;15787;49.662;10.162;2024-02-16T02:17:39;5.95;;;3.78;;
28587;SDS011;15787;49.662;10.162;2024-02-16T02:20:12;12.25;;;4.30;;
28587;SDS011;15787;49.662;10.162;2024-02-16T02:22:48;6.63;;;4.35;;
28587;SDS011;15787;49.662;10.162;2024-02-16T02:25:21;8.45;;;4.22;;
28587;SDS011;15787;49.662;10.162;2024-02-16T02:27:57;6.68;;;4.03;;
28587;SDS011;15787;49.662;10.162;2024-02-16T02:30:31;7.18;;;3.85;;
28587;SDS011;15787;49.662;10.162;2024-02-16T02:33:04;6.95;;;4.03;;
28587;SDS011;15787;49.662;10.162;2024-02-16T02:35:37;10.15;;;5.03;;
28587;SDS011;15787;49.662;10.162;2024-02-16T02:38:12;12.80;;;6.18;;
28587;SDS011;15787;49.662;10.162;2024-02-16T02:40:45;9.02;;;5.28;;
28587;SDS011;15787;49.662;10.162;2024-02-16T02:43:18;10.07;;;5.07;;
28587;SDS011;15787;49.662;10.162;2024-02-16T02:45:53;12.55;;;6.32;;
28587;SDS011;15787;49.662;10.162;2024-02-16T02:48:26;7.85;;;4.72;;
28587;SDS011;15787;49.662;10.162;2024-02-16T02:51:00;8.55;;;4.93;;
28587;SDS011;15787;49.662;10.162;2024-02-16T02:53:34;8.40;;;4.93;;
28587;SDS011;15787;49.662;10.162;2024-02-16T02:56:08;7.13;;;5.10;;
28587;SDS011;15787;49.662;10.162;2024-02-16T02:58:41;12.18;;;5.07;;
28587;SDS011;15787;49.662;10.162;2024-02-16T03:01:15;8.50;;;4.53;;
28587;SDS011;15787;49.662;10.162;2024-02-16T03:03:51;9.57;;;4.85;;
28587;SDS011;15787;49.662;10.162;2024-02-16T03:06:25;7.88;;;4.82;;
28587;SDS011;15787;49.662;10.162;2024-02-16T03:09:00;9.15;;;5.30;;
28587;SDS011;15787;49.662;10.162;2024-02-16T03:11:33;9.57;;;4.65;;
28587;SDS011;15787;49.662;10.162;2024-02-16T03:14:07;9.77;;;4.65;;
28587;SDS011;15787;49.662;10.162;2024-02-16T03:16:40;8.15;;;4.50;;
28587;SDS011;15787;49.662;10.162;2024-02-16T03:19:13;7.45;;;4.75;;
28587;SDS011;15787;49.662;10.162;2024-02-16T03:21:46;10.25;;;5.80;;
28587;SDS011;15787;49.662;10.162;2024-02-16T03:24:21;8.00;;;4.78;;
28587;SDS011;15787;49.662;10.162;2024-02-16T03:26:55;10.93;;;4.95;;
28587;SDS011;15787;49.662;10.162;2024-02-16T03:29:28;8.25;;;4.82;;
28587;SDS011;15787;49.662;10.162;2024-02-16T03:32:01;7.63;;;5.07;;
28587;SDS011;15787;49.662;10.162;2024-02-16T03:34:37;9.85;;;5.15;;
28587;SDS011;15787;49.662;10.162;2024-02-16T03:37:11;7.85;;;4.85;;
28587;SDS011;15787;49.662;10.162;2024-02-16T03:39:45;10.43;;;6.03;;
28587;SDS011;15787;49.662;10.162;2024-02-16T03:42:22;9.57;;;5.32;;
28587;SDS011;15787;49.662;10.162;2024-02-16T03:44:55;7.65;;;5.07;;
28587;SDS011;15787;49.662;10.162;2024-02-16T03:47:29;7.35;;;5.20;;
28587;SDS011;15787;49.662;10.162;2024-02-16T03:50:03;15.20;;;9.60;;
28587;SDS011;15787;49.662;10.162;2024-02-16T03:52:36;9.90;;;5.97;;
28587;SDS011;15787;49.662;10.162;2024-02-16T03:55:11;11.98;;;6.28;;
28587;SDS011;15787;49.662;10.162;2024-02-16T03:57:44;13.57;;;5.97;;
28587;SDS011;15787;49.662;10.162;2024-02-16T04:00:18;8.98;;;6.32;;
28587;SDS011;15787;49.662;10.162;2024-02-16T04:02:52;8.20;;;5.35;;
28587;SDS011;15787;49.662;10.162;2024-02-16T04:05:25;7.93;;;5.35;;
28587;SDS011;15787;49.662;10.162;2024-02-16T04:08:03;6.35;;;4.65;;
28587;SDS011;15787;49.662;10.162;2024-02-16T04:10:39;8.27;;;4.90;;
28587;SDS011;15787;49.662;10.162;2024-02-16T04:13:12;8.30;;;5.07;;
28587;SDS011;15787;49.662;10.162;2024-02-16T04:15:45;9.93;;;5.85;;
28587;SDS011;15787;49.662;10.162;2024-02-16T04:18:21;10.57;;;5.78;;
28587;SDS011;15787;49.662;10.162;2024-02-16T04:20:54;11.23;;;5.75;;
28587;SDS011;15787;49.662;10.162;2024-02-16T04:23:27;9.75;;;5.20;;
28587;SDS011;15787;49.662;10.162;2024-02-16T04:26:02;11.10;;;5.65;;
28587;SDS011;15787;49.662;10.162;2024-02-16T04:28:39;11.20;;;5.78;;
28587;SDS011;15787;49.662;10.162;2024-02-16T04:31:12;12.75;;;5.97;;
28587;SDS011;15787;49.662;10.162;2024-02-16T04:33:45;10.82;;;6.80;;
28587;SDS011;15787;49.662;10.162;2024-02-16T04:36:21;10.52;;;6.47;;
28587;SDS011;15787;49.662;10.162;2024-02-16T04:38:54;11.27;;;6.32;;
28587;SDS011;15787;49.662;10.162;2024-02-16T04:41:29;12.45;;;6.53;;
28587;SDS011;15787;49.662;10.162;2024-02-16T04:44:02;10.77;;;6.50;;
28587;SDS011;15787;49.662;10.162;2024-02-16T04:46:35;9.73;;;6.53;;
28587;SDS011;15787;49.662;10.162;2024-02-16T04:49:09;8.80;;;5.97;;
28587;SDS011;15787;49.662;10.162;2024-02-16T04:51:43;8.65;;;5.78;;
28587;SDS011;15787;49.662;10.162;2024-02-16T04:54:19;11.40;;;6.53;;
28587;SDS011;15787;49.662;10.162;2024-02-16T04:56:55;11.82;;;6.00;;
28587;SDS011;15787;49.662;10.162;2024-02-16T04:59:28;9.77;;;6.18;;
28587;SDS011;15787;49.662;10.162;2024-02-16T05:02:05;12.20;;;6.60;;
28587;SDS011;15787;49.662;10.162;2024-02-16T05:04:39;10.05;;;6.05;;
28587;SDS011;15787;49.662;10.162;2024-02-16T05:07:12;12.18;;;6.28;;
28587;SDS011;15787;49.662;10.162;2024-02-16T05:09:49;9.63;;;5.95;;
28587;SDS011;15787;49.662;10.162;2024-02-16T05:12:28;14.43;;;6.72;;
28587;SDS011;15787;49.662;10.162;2024-02-16T05:15:05;10.05;;;6.18;;
28587;SDS011;15787;49.662;10.162;2024-02-16T05:17:42;11.80;;;6.47;;
28587;SDS011;15787;49.662;10.162;2024-02-16T05:20:15;10.20;;;6.30;;
28587;SDS011;15787;49.662;10.162;2024-02-16T05:22:49;8.52;;;5.43;;
28587;SDS011;15787;49.662;10.162;2024-02-16T05:25:24;11.68;;;6.93;;
28587;SDS011;15787;49.662;10.162;2024-02-16T05:27:59;12.43;;;7.18;;
28587;SDS011;15787;49.662;10.162;2024-02-16T05:30:34;13.73;;;7.68;;
28587;SDS011;15787;49.662;10.162;2024-02-16T05:33:07;15.02;;;8.20;;
28587;SDS011;15787;49.662;10.162;2024-02-16T05:35:41;10.20;;;6.97;;
28587;SDS011;15787;49.662;10.162;2024-02-16T05:38:16;10.75;;;6.40;;
28587;SDS011;15787;49.662;10.162;2024-02-16T05:41:04;10.40;;;6.53;;
28587;SDS011;15787;49.662;10.162;2024-02-16T05:43:39;9.63;;;6.30;;
28587;SDS011;15787;49.662;10.162;2024-02-16T05:46:12;10.38;;;6.32;;
28587;SDS011;15787;49.662;10.162;2024-02-16T05:48:47;10.18;;;6.18;;
28587;SDS011;15787;49.662;10.162;2024-02-16T05:51:21;8.90;;;5.95;;
28587;SDS011;15787;49.662;10.162;2024-02-16T05:53:54;9.73;;;6.03;;
28587;SDS011;15787;49.662;10.162;2024-02-16T05:56:27;9.00;;;6.30;;
28587;SDS011;15787;49.662;10.162;2024-02-16T05:59:02;10.00;;;6.68;;
28587;SDS011;15787;49.662;10.162;2024-02-16T06:01:35;10.18;;;5.45;;
28587;SDS011;15787;49.662;10.162;2024-02-16T06:04:08;8.15;;;5.22;;
28587;SDS011;15787;49.662;10.162;2024-02-16T06:06:41;9.13;;;5.75;;
28587;SDS011;15787;49.662;10.162;2024-02-16T06:09:15;9.63;;;5.88;;
28587;SDS011;15787;49.662;10.162;2024-02-16T06:11:48;9.40;;;6.32;;
28587;SDS011;15787;49.662;10.162;2024-02-16T06:14:22;9.50;;;6.22;;
28587;SDS011;15787;49.662;10.162;2024-02-16T06:16:56;12.63;;;7.13;;
28587;SDS011;15787;49.662;10.162;2024-02-16T06:19:35;10.35;;;6.15;;
28587;SDS011;15787;49.662;10.162;2024-02-16T06:22:09;9.85;;;6.57;;
28587;SDS011;15787;49.662;10.162;2024-02-16T06:24:42;13.40;;;7.03;;
28587;SDS011;15787;49.662;10.162;2024-02-16T06:27:16;15.70;;;7.28;;
28587;SDS011;15787;49.662;10.162;2024-02-16T06:29:50;13.32;;;6.72;;
28587;SDS011;15787;49.662;10.162;2024-02-16T06:32:23;10.35;;;6.72;;
28587;SDS011;15787;49.662;10.162;2024-02-16T06:34:57;12.55;;;6.35;;
28587;SDS011;15787;49.662;10.162;2024-02-16T06:37:30;10.48;;;7.45;;
28587;SDS011;15787;49.662;10.162;2024-02-16T06:40:04;17.05;;;10.13;;
28587;SDS011;15787;49.662;10.162;2024-02-16T06:42:42;13.90;;;9.18;;
28587;SDS011;15787;49.662;10.162;2024-02-16T06:45:17;18.02;;;10.38;;
28587;SDS011;15787;49.662;10.162;2024-02-16T06:47:54;17.67;;;10.10;;
28587;SDS011;15787;49.662;10.162;2024-02-16T06:50:28;13.45;;;8.32;;
28587;SDS011;15787;49.662;10.162;2024-02-16T06:53:01;13.45;;;8.07;;
28587;SDS011;15787;49.662;10.162;2024-02-16T06:55:34;13.45;;;8.82;;
28587;SDS011;15787;49.662;10.162;2024-02-16T06:58:10;15.07;;;8.65;;
28587;SDS011;15787;49.662;10.162;2024-02-16T07:00:45;13.85;;;7.57;;
28587;SDS011;15787;49.662;10.162;2024-02-16T07:03:18;13.13;;;6.25;;
28587;SDS011;15787;49.662;10.162;2024-02-16T07:05:51;11.95;;;7.40;;
28587;SDS011;15787;49.662;10.162;2024-02-16T07:08:27;11.57;;;7.05;;
28587;SDS011;15787;49.662;10.162;2024-02-16T07:11:01;9.25;;;6.72;;
28587;SDS011;15787;49.662;10.162;2024-02-16T07:13:35;11.07;;;7.70;;
28587;SDS011;15787;49.662;10.162;2024-02-16T07:16:12;12.95;;;8.13;;
28587;SDS011;15787;49.662;10.162;2024-02-16T07:18:45;11.98;;;7.53;;
28587;SDS011;15787;49.662;10.162;2024-02-16T07:21:19;11.90;;;9.02;;
28587;SDS011;15787;49.662;10.162;2024-02-16T07:23:53;15.35;;;8.98;;
28587;SDS011;15787;49.662;10.162;2024-02-16T07:26:27;10.93;;;6.68;;
28587;SDS011;15787;49.662;10.162;2024-02-16T07:29:00;12.40;;;6.50;;
28587;SDS011;15787;49.662;10.162;2024-02-16T07:31:35;13.60;;;7.38;;
28587;SDS011;15787;49.662;10.162;2024-02-16T07:34:08;12.18;;;6.93;;
28587;SDS011;15787;49.662;10.162;2024-02-16T07:36:43;14.63;;;9.00;;
28587;SDS011;15787;49.662;10.162;2024-02-16T07:39:16;17.30;;;8.25;;
28587;SDS011;15787;49.662;10.162;2024-02-16T07:41:49;16.65;;;9.05;;
28587;SDS011;15787;49.662;10.162;2024-02-16T07:44:22;11.65;;;8.48;;
28587;SDS011;15787;49.662;10.162;2024-02-16T07:46:57;14.75;;;8.70;;
28587;SDS011;15787;49.662;10.162;2024-02-16T07:49:30;16.23;;;9.15;;
28587;SDS011;15787;49.662;10.162;2024-02-16T07:52:03;12.43;;;9.02;;
28587;SDS011;15787;49.662;10.162;2024-02-16T07:54:36;12.15;;;8.38;;
28587;SDS011;15787;49.662;10.162;2024-02-16T07:57:10;13.85;;;8.52;;
28587;SDS011;15787;49.662;10.162;2024-02-16T07:59:43;13.73;;;8.43;;
28587;SDS011;15787;49.662;10.162;2024-02-16T08:02:17;14.00;;;8.90;;
28587;SDS011;15787;49.662;10.162;2024-02-16T08:04:51;18.38;;;11.63;;
28587;SDS011;15787;49.662;10.162;2024-02-16T08:07:24;16.50;;;10.07;;
28587;SDS011;15787;49.662;10.162;2024-02-16T08:09:57;14.68;;;10.13;;
28587;SDS011;15787;49.662;10.162;2024-02-16T08:12:32;13.30;;;8.73;;
28587;SDS011;15787;49.662;10.162;2024-02-16T08:15:09;15.23;;;10.00;;
28587;SDS011;15787;49.662;10.162;2024-02-16T08:17:43;11.77;;;8.38;;
28587;SDS011;15787;49.662;10.162;2024-02-16T08:20:16;13.60;;;8.35;;
28587;SDS011;15787;49.662;10.162;2024-02-16T08:22:49;12.70;;;8.80;;
28587;SDS011;15787;49.662;10.162;2024-02-16T08:25:22;11.77;;;8.05;;
28587;SDS011;15787;49.662;10.162;2024-02-16T08:27:56;12.45;;;8.48;;
28587;SDS011;15787;49.662;10.162;2024-02-16T08:30:29;14.35;;;8.27;;
28587;SDS011;15787;49.662;10.162;2024-02-16T08:33:03;12.85;;;7.65;;
28587;SDS011;15787;49.662;10.162;2024-02-16T08:35:38;13.75;;;6.90;;
28587;SDS011;15787;49.662;10.162;2024-02-16T08:38:11;11.68;;;7.50;;
28587;SDS011;15787;49.662;10.162;2024-02-16T08:40:44;10.65;;;6.65;;
28587;SDS011;15787;49.662;10.162;2024-02-16T08:43:18;10.50;;;6.82;;
28587;SDS011;15787;49.662;10.162;2024-02-16T08:45:51;11.13;;;6.35;;
28587;SDS011;15787;49.662;10.162;2024-02-16T08:48:25;14.52;;;8.07;;
28587;SDS011;15787;49.662;10.162;2024-02-16T08:50:59;10.65;;;6.50;;
28587;SDS011;15787;49.662;10.162;2024-02-16T08:53:32;11.40;;;6.57;;
28587;SDS011;15787;49.662;10.162;2024-02-16T08:56:08;11.38;;;6.72;;
28587;SDS011;15787;49.662;10.162;2024-02-16T08:58:42;8.95;;;6.25;;
28587;SDS011;15787;49.662;10.162;2024-02-16T09:01:16;14.48;;;7.22;;
28587;SDS011;15787;49.662;10.162;2024-02-16T09:03:51;11.27;;;7.07;;
28587;SDS011;15787;49.662;10.162;2024-02-16T09:06:26;10.43;;;6.60;;
28587;SDS011;15787;49.662;10.162;2024-02-16T09:09:03;11.88;;;6.63;;
28587;SDS011;15787;49.662;10.162;2024-02-16T09:11:36;11.45;;;7.00;;
28587;SDS011;15787;49.662;10.162;2024-02-16T09:14:10;12.95;;;6.35;;
28587;SDS011;15787;49.662;10.162;2024-02-16T09:16:48;9.75;;;6.30;;
28587;SDS011;15787;49.662;10.162;2024-02-16T09:19:24;12.52;;;6.53;;
28587;SDS011;15787;49.662;10.162;2024-02-16T09:21:59;13.40;;;7.05;;
28587;SDS011;15787;49.662;10.162;2024-02-16T09:24:33;12.32;;;6.60;;
28587;SDS011;15787;49.662;10.162;2024-02-16T09:27:08;14.35;;;6.47;;
28587;SDS011;15787;49.662;10.162;2024-02-16T09:29:41;9.95;;;6.10;;
28587;SDS011;15787;49.662;10.162;2024-02-16T09:32:15;10.45;;;5.78;;
28587;SDS011;15787;49.662;10.162;2024-02-16T09:34:49;10.77;;;5.70;;
28587;SDS011;15787;49.662;10.162;2024-02-16T09:37:23;11.35;;;6.03;;
28587;SDS011;15787;49.662;10.162;2024-02-16T09:39:56;8.95;;;5.35;;
28587;SDS011;15787;49.662;10.162;2024-02-16T09:42:29;9.65;;;5.63;;
28587;SDS011;15787;49.662;10.162;2024-02-16T09:45:02;10.13;;;5.50;;
28587;SDS011;15787;49.662;10.162;2024-02-16T09:47:37;9.95;;;4.95;;
28587;SDS011;15787;49.662;10.162;2024-02-16T09:50:19;10.32;;;5.60;;
28587;SDS011;15787;49.662;10.162;2024-02-16T09:52:54;7.25;;;4.85;;
28587;SDS011;15787;49.662;10.162;2024-02-16T09:55:29;9.25;;;5.60;;
28587;SDS011;15787;49.662;10.162;2024-02-16T09:58:04;9.55;;;5.00;;
28587;SDS011;15787;49.662;10.162;2024-02-16T10:00:38;8.32;;;5.28;;
28587;SDS011;15787;49.662;10.162;2024-02-16T10:03:20;8.20;;;5.40;;
28587;SDS011;15787;49.662;10.162;2024-02-16T10:06:05;12.57;;;5.45;;
28587;SDS011;15787;49.662;10.162;2024-02-16T10:08:46;7.43;;;5.20;;
28587;SDS011;15787;49.662;10.162;2024-02-16T10:11:21;7.97;;;4.78;;
28587;SDS011;15787;49.662;10.162;2024-02-16T10:13:59;7.63;;;4.82;;
28587;SDS011;15787;49.662;10.162;2024-02-16T10:16:34;7.82;;;5.30;;
28587;SDS011;15787;49.662;10.162;2024-02-16T10:19:08;7.75;;;5.20;;
28587;SDS011;15787;49.662;10.162;2024-02-16T10:21:53;6.70;;;4.45;;
28587;SDS011;15787;49.662;10.162;2024-02-16T10:24:38;6.80;;;4.60;;
28587;SDS011;15787;49.662;10.162;2024-02-16T10:27:14;8.85;;;4.20;;
28587;SDS011;15787;49.662;10.162;2024-02-16T10:29:49;11.82;;;5.18;;
28587;SDS011;15787;49.662;10.162;2024-02-16T10:32:26;7.43;;;5.00;;
28587;SDS011;15787;49.662;10.162;2024-02-16T10:35:02;8.90;;;3.90;;
28587;SDS011;15787;49.662;10.162;2024-02-16T10:37:41;8.05;;;3.67;;
28587;SDS011;15787;49.662;10.162;2024-02-16T10:40:15;7.05;;;4.43;;
28587;SDS011;15787;49.662;10.162;2024-02-16T10:42:50;6.22;;;3.58;;
28587;SDS011;15787;49.662;10.162;2024-02-16T10:45:23;6.35;;;3.65;;
28587;SDS011;15787;49.662;10.162;2024-02-16T10:47:58;5.63;;;3.58;;
28587;SDS011;15787;49.662;10.162;2024-02-16T10:50:31;5.40;;;3.00;;
28587;SDS011;15787;49.662;10.162;2024-02-16T10:56:55;4.50;;;2.35;;
28587;SDS011;15787;49.662;10.162;2024-02-16T10:59:37;6.18;;;2.40;;
28587;SDS011;15787;49.662;10.162;2024-02-16T11:02:14;5.15;;;2.92;;
28587;SDS011;15787;49.662;10.162;2024-02-16T11:04:47;4.78;;;2.50;;
28587;SDS011;15787;49.662;10.162;2024-02-16T11:07:21;5.13;;;3.08;;
28587;SDS011;15787;49.662;10.162;2024-02-16T11:09:59;4.90;;;2.00;;
28587;SDS011;15787;49.662;10.162;2024-02-16T11:12:34;3.50;;;1.90;;
28587;SDS011;15787;49.662;10.162;2024-02-16T11:15:07;6.20;;;2.25;;
28587;SDS011;15787;49.662;10.162;2024-02-16T11:17:41;3.10;;;1.30;;
28587;SDS011;15787;49.662;10.162;2024-02-16T11:20:14;5.93;;;1.48;;
28587;SDS011;15787;49.662;10.162;2024-02-16T11:22:47;3.67;;;1.20;;
28587;SDS011;15787;49.662;10.162;2024-02-16T11:25:30;2.53;;;1.20;;
28587;SDS011;15787;49.662;10.162;2024-02-16T11:28:05;3.75;;;1.50;;
28587;SDS011;15787;49.662;10.162;2024-02-16T11:30:39;4.28;;;1.40;;
28587;SDS011;15787;49.662;10.162;2024-02-16T11:33:12;5.03;;;1.40;;
28587;SDS011;15787;49.662;10.162;2024-02-16T11:35:52;2.47;;;1.10;;
28587;SDS011;15787;49.662;10.162;2024-02-16T11:38:26;3.10;;;1.30;;
28587;SDS011;15787;49.662;10.162;2024-02-16T11:41:00;4.88;;;1.20;;
28587;SDS011;15787;49.662;10.162;2024-02-16T11:43:41;2.78;;;1.02;;
28587;SDS011;15787;49.662;10.162;2024-02-16T11:46:14;3.03;;;1.23;;
28587;SDS011;15787;49.662;10.162;2024-02-16T11:48:49;3.97;;;1.30;;
28587;SDS011;15787;49.662;10.162;2024-02-16T11:51:26;3.40;;;1.10;;
28587;SDS011;15787;49.662;10.162;2024-02-16T11:53:59;6.10;;;1.27;;
28587;SDS011;15787;49.662;10.162;2024-02-16T11:56:32;4.15;;;1.45;;
28587;SDS011;15787;49.662;10.162;2024-02-16T11:59:09;5.60;;;1.40;;
28587;SDS011;15787;49.662;10.162;2024-02-16T12:01:49;3.25;;;1.20;;
28587;SDS011;15787;49.662;10.162;2024-02-16T12:04:24;2.80;;;1.10;;
28587;SDS011;15787;49.662;10.162;2024-02-16T12:07:01;2.70;;;1.15;;
28587;SDS011;15787;49.662;10.162;2024-02-16T12:09:36;3.95;;;1.30;;
28587;SDS011;15787;49.662;10.162;2024-02-16T12:12:10;3.45;;;1.33;;
28587;SDS011;15787;49.662;10.162;2024-02-16T12:14:48;3.58;;;1.10;;
28587;SDS011;15787;49.662;10.162;2024-02-16T12:17:22;2.60;;;1.23;;
28587;SDS011;15787;49.662;10.162;2024-02-16T12:19:55;3.05;;;1.38;;
28587;SDS011;15787;49.662;10.162;2024-02-16T12:22:29;5.43;;;1.20;;
28587;SDS011;15787;49.662;10.162;2024-02-16T12:25:02;5.43;;;1.40;;
28587;SDS011;15787;49.662;10.162;2024-02-16T12:27:35;2.50;;;1.40;;
28587;SDS011;15787;49.662;10.162;2024-02-16T12:30:11;3.08;;;1.55;;
28587;SDS011;15787;49.662;10.162;2024-02-16T12:32:44;4.45;;;1.63;;
28587;SDS011;15787;49.662;10.162;2024-02-16T12:35:21;2.72;;;1.42;;
28587;SDS011;15787;49.662;10.162;2024-02-16T12:37:54;5.35;;;1.75;;
28587;SDS011;15787;49.662;10.162;2024-02-16T12:40:28;4.35;;;1.20;;
28587;SDS011;15787;49.662;10.162;2024-02-16T12:43:01;5.15;;;1.60;;
28587;SDS011;15787;49.662;10.162;2024-02-16T12:45:35;5.65;;;1.80;;
28587;SDS011;15787;49.662;10.162;2024-02-16T12:48:08;3.72;;;1.40;;
28587;SDS011;15787;49.662;10.162;2024-02-16T12:50:46;13.43;;;1.88;;
28587;SDS011;15787;49.662;10.162;2024-02-16T12:53:20;7.15;;;1.80;;
28587;SDS011;15787;49.662;10.162;2024-02-16T12:55:57;4.13;;;2.00;;
28587;SDS011;15787;49.662;10.162;2024-02-16T12:58:33;3.60;;;1.55;;
28587;SDS011;15787;49.662;10.162;2024-02-16T13:01:07;6.00;;;1.70;;
28587;SDS011;15787;49.662;10.162;2024-02-16T13:03:53;5.18;;;1.88;;
28587;SDS011;15787;49.662;10.162;2024-02-16T13:06:26;5.57;;;1.77;;
28587;SDS011;15787;49.662;10.162;2024-02-16T13:09:00;4.75;;;1.40;;
28587;SDS011;15787;49.662;10.162;2024-02-16T13:11:33;3.92;;;1.70;;
28587;SDS011;15787;49.662;10.162;2024-02-16T13:14:06;4.57;;;1.50;;
28587;SDS011;15787;49.662;10.162;2024-02-16T13:16:41;4.05;;;1.30;;
28587;SDS011;15787;49.662;10.162;2024-02-16T13:19:14;2.28;;;1.20;;
28587;SDS011;15787;49.662;10.162;2024-02-16T13:21:49;2.72;;;1.15;;
28587;SDS011;15787;49.662;10.162;2024-02-16T13:24:24;3.88;;;1.08;;
28587;SDS011;15787;49.662;10.162;2024-02-16T13:26:57;4.35;;;1.40;;
28587;SDS011;15787;49.662;10.162;2024-02-16T13:29:31;6.00;;;1.80;;
28587;SDS011;15787;49.662;10.162;2024-02-16T13:32:09;3.78;;;1.40;;
28587;SDS011;15787;49.662;10.162;2024-02-16T13:34:43;4.07;;;1.60;;
28587;SDS011;15787;49.662;10.162;2024-02-16T13:37:16;3.25;;;1.65;;
28587;SDS011;15787;49.662;10.162;2024-02-16T13:39:49;2.83;;;1.50;;
28587;SDS011;15787;49.662;10.162;2024-02-16T13:42:22;4.00;;;1.65;;
28587;SDS011;15787;49.662;10.162;2024-02-16T13:44:55;4.95;;;1.60;;
28587;SDS011;15787;49.662;10.162;2024-02-16T13:47:31;4.07;;;1.40;;
28587;SDS011;15787;49.662;10.162;2024-02-16T13:50:04;4.15;;;1.40;;
28587;SDS011;15787;49.662;10.162;2024-02-16T13:52:38;6.63;;;1.77;;
28587;SDS011;15787;49.662;10.162;2024-02-16T13:55:11;5.90;;;1.42;;
28587;SDS011;15787;49.662;10.162;2024-02-16T13:57:45;4.32;;;1.73;;
28587;SDS011;15787;49.662;10.162;2024-02-16T14:00:18;6.63;;;1.60;;
28587;SDS011;15787;49.662;10.162;2024-02-16T14:02:53;4.38;;;1.70;;
28587;SDS011;15787;49.662;10.162;2024-02-16T14:05:27;6.13;;;1.60;;
28587;SDS011;15787;49.662;10.162;2024-02-16T14:08:00;30.00;;;3.20;;
28587;SDS011;15787;49.662;10.162;2024-02-16T14:10:36;5.78;;;1.70;;
28587;SDS011;15787;49.662;10.162;2024-02-16T14:13:10;4.75;;;2.17;;
28587;SDS011;15787;49.662;10.162;2024-02-16T14:15:43;4.03;;;1.30;;
28587;SDS011;15787;49.662;10.162;2024-02-16T14:18:20;5.18;;;1.50;;
28587;SDS011;15787;49.662;10.162;2024-02-16T14:21:05;4.03;;;1.35;;
28587;SDS011;15787;49.662;10.162;2024-02-16T14:23:38;7.50;;;1.55;;
28587;SDS011;15787;49.662;10.162;2024-02-16T14:26:11;7.07;;;1.73;;
28587;SDS011;15787;49.662;10.162;2024-02-16T14:28:44;6.50;;;1.73;;
28587;SDS011;15787;49.662;10.162;2024-02-16T14:31:18;8.00;;;1.65;;
28587;SDS011;15787;49.662;10.162;2024-02-16T14:33:54;9.18;;;1.85;;
28587;SDS011;15787;49.662;10.162;2024-02-16T14:36:28;5.00;;;1.55;;
28587;SDS011;15787;49.662;10.162;2024-02-16T14:39:01;3.45;;;1.35;;
28587;SDS011;15787;49.662;10.162;2024-02-16T14:41:34;6.88;;;1.52;;
28587;SDS011;15787;49.662;10.162;2024-02-16T14:44:10;6.05;;;1.63;;
28587;SDS011;15787;49.662;10.162;2024-02-16T14:46:43;7.57;;;1.92;;
28587;SDS011;15787;49.662;10.162;2024-02-16T14:49:18;6.53;;;2.17;;
28587;SDS011;15787;49.662;10.162;2024-02-16T14:51:53;3.45;;;2.00;;
28587;SDS011;15787;49.662;10.162;2024-02-16T14:54:27;4.03;;;1.50;;
28587;SDS011;15787;49.662;10.162;2024-02-16T14:57:01;9.32;;;2.50;;
28587;SDS011;15787;49.662;10.162;2024-02-16T14:59:34;5.03;;;2.00;;
28587;SDS011;15787;49.662;10.162;2024-02-16T15:02:07;3.72;;;1.60;;
28587;SDS011;15787;49.662;10.162;2024-02-16T15:04:42;4.25;;;1.70;;
28587;SDS011;15787;49.662;10.162;2024-02-16T15:07:16;6.60;;;1.80;;
28587;SDS011;15787;49.662;10.162;2024-02-16T15:09:49;4.50;;;1.55;;
28587;SDS011;15787;49.662;10.162;2024-02-16T15:12:23;7.90;;;2.05;;
28587;SDS011;15787;49.662;10.162;2024-02-16T15:14:56;6.40;;;1.83;;